sensor_id;sensor_type;location;lat;lon;timestamp;temperature;humidity
22838;DHT22;11585;51.450;-0.240;2022-08-19T00:01:26;22.40;99.90
22838;DHT22;11585;51.450;-0.240;2022-08-19T00:03:52;22.50;99.90
22838;DHT22;11585;51.450;-0.240;2022-08-19T00:06:18;22.50;99.90
22838;DHT22;11585;51.450;-0.240;2022-08-19T00:08:44;22.50;99.90
22838;DHT22;11585;51.450;-0.240;2022-08-19T00:11:11;22.40;99.90
22838;DHT22;11585;51.450;-0.240;2022-08-19T00:13:38;22.40;99.90
22838;DHT22;11585;51.450;-0.240;2022-08-19T00:16:04;22.50;99.90
22838;DHT22;11585;51.450;-0.240;2022-08-19T00:18:32;22.40;99.90
22838;DHT22;11585;51.450;-0.240;2022-08-19T00:20:58;22.40;99.90
22838;DHT22;11585;51.450;-0.240;2022-08-19T00:23:25;22.40;99.90
22838;DHT22;11585;51.450;-0.240;2022-08-19T00:25:51;22.40;99.90
22838;DHT22;11585;51.450;-0.240;2022-08-19T00:28:17;22.40;99.90
22838;DHT22;11585;51.450;-0.240;2022-08-19T00:30:43;22.40;99.90
22838;DHT22;11585;51.450;-0.240;2022-08-19T00:33:10;22.40;99.90
22838;DHT22;11585;51.450;-0.240;2022-08-19T00:35:35;22.40;99.90
22838;DHT22;11585;51.450;-0.240;2022-08-19T00:38:02;22.40;99.90
22838;DHT22;11585;51.450;-0.240;2022-08-19T00:40:29;22.40;99.90
22838;DHT22;11585;51.450;-0.240;2022-08-19T00:42:56;22.40;99.90
22838;DHT22;11585;51.450;-0.240;2022-08-19T00:45:25;22.40;99.90
22838;DHT22;11585;51.450;-0.240;2022-08-19T00:47:51;22.40;99.90
22838;DHT22;11585;51.450;-0.240;2022-08-19T00:50:19;22.40;99.90
22838;DHT22;11585;51.450;-0.240;2022-08-19T00:52:49;22.40;99.90
22838;DHT22;11585;51.450;-0.240;2022-08-19T00:55:21;22.40;99.90
22838;DHT22;11585;51.450;-0.240;2022-08-19T00:57:58;22.40;99.90
22838;DHT22;11585;51.450;-0.240;2022-08-19T01:00:27;22.40;99.90
22838;DHT22;11585;51.450;-0.240;2022-08-19T01:02:53;22.40;99.90
22838;DHT22;11585;51.450;-0.240;2022-08-19T01:05:23;22.40;99.90
22838;DHT22;11585;51.450;-0.240;2022-08-19T01:07:50;22.40;99.90
22838;DHT22;11585;51.450;-0.240;2022-08-19T01:10:20;22.40;99.90
22838;DHT22;11585;51.450;-0.240;2022-08-19T01:12:47;22.40;99.90
22838;DHT22;11585;51.450;-0.240;2022-08-19T01:15:17;22.40;99.90
22838;DHT22;11585;51.450;-0.240;2022-08-19T01:17:44;22.40;99.90
22838;DHT22;11585;51.450;-0.240;2022-08-19T01:20:15;22.40;99.90
22838;DHT22;11585;51.450;-0.240;2022-08-19T01:22:54;22.40;99.90
22838;DHT22;11585;51.450;-0.240;2022-08-19T01:25:28;22.40;99.90
22838;DHT22;11585;51.450;-0.240;2022-08-19T01:27:55;22.40;99.90
22838;DHT22;11585;51.450;-0.240;2022-08-19T01:30:29;22.40;99.90
22838;DHT22;11585;51.450;-0.240;2022-08-19T01:32:56;22.40;99.90
22838;DHT22;11585;51.450;-0.240;2022-08-19T01:35:26;22.40;99.90
22838;DHT22;11585;51.450;-0.240;2022-08-19T01:38:00;22.40;99.90
22838;DHT22;11585;51.450;-0.240;2022-08-19T01:40:30;22.40;99.90
22838;DHT22;11585;51.450;-0.240;2022-08-19T01:42:56;22.40;99.90
22838;DHT22;11585;51.450;-0.240;2022-08-19T01:45:23;22.40;99.90
22838;DHT22;11585;51.450;-0.240;2022-08-19T01:47:50;22.40;99.90
22838;DHT22;11585;51.450;-0.240;2022-08-19T01:50:16;22.40;99.90
22838;DHT22;11585;51.450;-0.240;2022-08-19T01:52:43;22.40;99.90
22838;DHT22;11585;51.450;-0.240;2022-08-19T01:55:13;22.40;99.90
22838;DHT22;11585;51.450;-0.240;2022-08-19T01:57:42;22.40;99.90
22838;DHT22;11585;51.450;-0.240;2022-08-19T02:00:12;22.40;99.90
22838;DHT22;11585;51.450;-0.240;2022-08-19T02:02:40;22.40;99.90
22838;DHT22;11585;51.450;-0.240;2022-08-19T02:05:07;22.40;99.90
22838;DHT22;11585;51.450;-0.240;2022-08-19T02:07:34;22.40;99.90
22838;DHT22;11585;51.450;-0.240;2022-08-19T02:10:07;22.40;99.90
22838;DHT22;11585;51.450;-0.240;2022-08-19T02:12:32;22.40;99.90
22838;DHT22;11585;51.450;-0.240;2022-08-19T02:15:01;22.40;99.90
22838;DHT22;11585;51.450;-0.240;2022-08-19T02:17:28;22.40;99.90
22838;DHT22;11585;51.450;-0.240;2022-08-19T02:19:55;22.40;99.90
22838;DHT22;11585;51.450;-0.240;2022-08-19T02:22:22;22.40;99.90
22838;DHT22;11585;51.450;-0.240;2022-08-19T02:24:48;22.40;99.90
22838;DHT22;11585;51.450;-0.240;2022-08-19T02:27:15;22.40;99.90
22838;DHT22;11585;51.450;-0.240;2022-08-19T02:29:46;22.40;99.90
22838;DHT22;11585;51.450;-0.240;2022-08-19T02:32:12;22.40;99.90
22838;DHT22;11585;51.450;-0.240;2022-08-19T02:34:56;22.40;99.90
22838;DHT22;11585;51.450;-0.240;2022-08-19T02:37:22;22.40;99.90
22838;DHT22;11585;51.450;-0.240;2022-08-19T02:40:06;22.40;99.90
22838;DHT22;11585;51.450;-0.240;2022-08-19T02:42:32;22.40;99.90
22838;DHT22;11585;51.450;-0.240;2022-08-19T02:44:58;22.40;99.90
22838;DHT22;11585;51.450;-0.240;2022-08-19T02:47:23;22.40;99.90
22838;DHT22;11585;51.450;-0.240;2022-08-19T02:49:49;22.30;99.90
22838;DHT22;11585;51.450;-0.240;2022-08-19T02:52:15;22.40;99.90
22838;DHT22;11585;51.450;-0.240;2022-08-19T02:54:42;22.40;99.90
22838;DHT22;11585;51.450;-0.240;2022-08-19T02:57:09;22.40;99.90
22838;DHT22;11585;51.450;-0.240;2022-08-19T02:59:35;22.40;99.90
22838;DHT22;11585;51.450;-0.240;2022-08-19T03:02:01;22.40;99.90
22838;DHT22;11585;51.450;-0.240;2022-08-19T03:04:27;22.40;99.90
22838;DHT22;11585;51.450;-0.240;2022-08-19T03:06:52;22.40;99.90
22838;DHT22;11585;51.450;-0.240;2022-08-19T03:09:19;22.40;99.90
22838;DHT22;11585;51.450;-0.240;2022-08-19T03:11:45;22.40;99.90
22838;DHT22;11585;51.450;-0.240;2022-08-19T03:14:12;22.40;99.90
22838;DHT22;11585;51.450;-0.240;2022-08-19T03:16:46;22.40;99.90
22838;DHT22;11585;51.450;-0.240;2022-08-19T03:19:13;22.40;99.90
22838;DHT22;11585;51.450;-0.240;2022-08-19T03:21:42;22.40;99.90
22838;DHT22;11585;51.450;-0.240;2022-08-19T03:24:10;22.40;99.90
22838;DHT22;11585;51.450;-0.240;2022-08-19T03:26:41;22.40;99.90
22838;DHT22;11585;51.450;-0.240;2022-08-19T03:29:07;22.40;99.90
22838;DHT22;11585;51.450;-0.240;2022-08-19T03:31:37;22.40;99.90
22838;DHT22;11585;51.450;-0.240;2022-08-19T03:34:05;22.40;99.90
22838;DHT22;11585;51.450;-0.240;2022-08-19T03:36:31;22.40;99.90
22838;DHT22;11585;51.450;-0.240;2022-08-19T03:38:59;22.40;99.90
22838;DHT22;11585;51.450;-0.240;2022-08-19T03:41:28;22.40;99.90
22838;DHT22;11585;51.450;-0.240;2022-08-19T03:43:55;22.40;99.90
22838;DHT22;11585;51.450;-0.240;2022-08-19T03:46:29;22.30;99.90
22838;DHT22;11585;51.450;-0.240;2022-08-19T03:48:57;22.40;99.90
22838;DHT22;11585;51.450;-0.240;2022-08-19T03:51:28;22.40;99.90
22838;DHT22;11585;51.450;-0.240;2022-08-19T03:53:57;22.40;99.90
22838;DHT22;11585;51.450;-0.240;2022-08-19T03:56:23;22.30;99.90
22838;DHT22;11585;51.450;-0.240;2022-08-19T03:58:51;22.40;99.90
22838;DHT22;11585;51.450;-0.240;2022-08-19T04:01:20;22.30;99.90
22838;DHT22;11585;51.450;-0.240;2022-08-19T04:03:47;22.40;99.90
22838;DHT22;11585;51.450;-0.240;2022-08-19T04:08:40;22.40;99.90
22838;DHT22;11585;51.450;-0.240;2022-08-19T04:11:08;22.30;99.90
22838;DHT22;11585;51.450;-0.240;2022-08-19T04:13:35;22.30;99.90
22838;DHT22;11585;51.450;-0.240;2022-08-19T04:16:00;22.30;99.90
22838;DHT22;11585;51.450;-0.240;2022-08-19T04:18:26;22.40;99.90
22838;DHT22;11585;51.450;-0.240;2022-08-19T04:20:55;22.30;99.90
22838;DHT22;11585;51.450;-0.240;2022-08-19T04:23:40;22.30;99.90
22838;DHT22;11585;51.450;-0.240;2022-08-19T04:26:06;22.30;99.90
22838;DHT22;11585;51.450;-0.240;2022-08-19T04:28:31;22.30;99.90
22838;DHT22;11585;51.450;-0.240;2022-08-19T04:30:57;22.30;99.90
22838;DHT22;11585;51.450;-0.240;2022-08-19T04:33:25;22.30;99.90
22838;DHT22;11585;51.450;-0.240;2022-08-19T04:35:52;22.30;99.90
22838;DHT22;11585;51.450;-0.240;2022-08-19T04:38:20;22.30;99.90
22838;DHT22;11585;51.450;-0.240;2022-08-19T04:40:49;22.30;99.90
22838;DHT22;11585;51.450;-0.240;2022-08-19T04:43:37;22.30;99.90
22838;DHT22;11585;51.450;-0.240;2022-08-19T04:46:11;22.30;99.90
22838;DHT22;11585;51.450;-0.240;2022-08-19T04:48:38;22.30;99.90
22838;DHT22;11585;51.450;-0.240;2022-08-19T04:51:10;22.30;99.90
22838;DHT22;11585;51.450;-0.240;2022-08-19T04:53:38;22.30;99.90
22838;DHT22;11585;51.450;-0.240;2022-08-19T04:56:13;22.30;99.90
22838;DHT22;11585;51.450;-0.240;2022-08-19T04:58:41;22.30;99.90
22838;DHT22;11585;51.450;-0.240;2022-08-19T05:01:08;22.20;99.90
22838;DHT22;11585;51.450;-0.240;2022-08-19T05:03:50;22.30;99.90
22838;DHT22;11585;51.450;-0.240;2022-08-19T05:06:18;22.20;99.90
22838;DHT22;11585;51.450;-0.240;2022-08-19T05:08:45;22.20;99.90
22838;DHT22;11585;51.450;-0.240;2022-08-19T05:11:16;22.20;99.90
22838;DHT22;11585;51.450;-0.240;2022-08-19T05:13:44;22.20;99.90
22838;DHT22;11585;51.450;-0.240;2022-08-19T05:16:12;22.20;99.90
22838;DHT22;11585;51.450;-0.240;2022-08-19T05:18:39;22.20;99.90
22838;DHT22;11585;51.450;-0.240;2022-08-19T05:21:24;22.10;99.90
22838;DHT22;11585;51.450;-0.240;2022-08-19T05:24:10;22.10;99.90
22838;DHT22;11585;51.450;-0.240;2022-08-19T05:26:38;22.10;99.90
22838;DHT22;11585;51.450;-0.240;2022-08-19T05:29:04;22.10;99.90
22838;DHT22;11585;51.450;-0.240;2022-08-19T05:31:31;22.10;99.90
22838;DHT22;11585;51.450;-0.240;2022-08-19T05:33:59;22.10;99.90
22838;DHT22;11585;51.450;-0.240;2022-08-19T05:36:29;22.10;99.90
22838;DHT22;11585;51.450;-0.240;2022-08-19T05:38:59;22.10;99.90
22838;DHT22;11585;51.450;-0.240;2022-08-19T05:41:25;22.00;99.90
22838;DHT22;11585;51.450;-0.240;2022-08-19T05:47:04;22.00;99.90
22838;DHT22;11585;51.450;-0.240;2022-08-19T05:49:31;22.00;99.90
22838;DHT22;11585;51.450;-0.240;2022-08-19T05:51:57;22.00;99.90
22838;DHT22;11585;51.450;-0.240;2022-08-19T05:54:25;22.00;99.90
22838;DHT22;11585;51.450;-0.240;2022-08-19T05:56:52;22.00;99.90
22838;DHT22;11585;51.450;-0.240;2022-08-19T05:59:20;22.00;99.90
22838;DHT22;11585;51.450;-0.240;2022-08-19T06:01:48;22.00;99.90
22838;DHT22;11585;51.450;-0.240;2022-08-19T06:04:21;22.00;99.90
22838;DHT22;11585;51.450;-0.240;2022-08-19T06:06:49;22.00;99.90
22838;DHT22;11585;51.450;-0.240;2022-08-19T06:09:17;21.90;99.90
22838;DHT22;11585;51.450;-0.240;2022-08-19T06:17:18;21.90;99.90
22838;DHT22;11585;51.450;-0.240;2022-08-19T06:19:43;21.90;99.90
22838;DHT22;11585;51.450;-0.240;2022-08-19T06:22:09;21.90;99.90
22838;DHT22;11585;51.450;-0.240;2022-08-19T06:24:39;21.90;99.90
22838;DHT22;11585;51.450;-0.240;2022-08-19T06:27:05;21.90;99.90
22838;DHT22;11585;51.450;-0.240;2022-08-19T06:29:31;21.90;99.90
22838;DHT22;11585;51.450;-0.240;2022-08-19T06:32:00;21.90;99.90
22838;DHT22;11585;51.450;-0.240;2022-08-19T06:34:30;21.90;99.90
22838;DHT22;11585;51.450;-0.240;2022-08-19T06:36:58;21.90;99.90
22838;DHT22;11585;51.450;-0.240;2022-08-19T06:39:32;21.80;99.90
22838;DHT22;11585;51.450;-0.240;2022-08-19T06:42:00;21.80;99.90
22838;DHT22;11585;51.450;-0.240;2022-08-19T06:44:29;21.80;99.90
22838;DHT22;11585;51.450;-0.240;2022-08-19T06:46:56;21.80;99.90
22838;DHT22;11585;51.450;-0.240;2022-08-19T06:49:23;21.80;99.90
22838;DHT22;11585;51.450;-0.240;2022-08-19T06:51:49;21.80;99.90
22838;DHT22;11585;51.450;-0.240;2022-08-19T06:54:18;21.80;99.90
22838;DHT22;11585;51.450;-0.240;2022-08-19T06:56:44;21.80;99.90
22838;DHT22;11585;51.450;-0.240;2022-08-19T06:59:16;21.80;99.90
22838;DHT22;11585;51.450;-0.240;2022-08-19T07:01:54;21.70;99.90
22838;DHT22;11585;51.450;-0.240;2022-08-19T07:04:23;21.70;99.90
22838;DHT22;11585;51.450;-0.240;2022-08-19T07:06:50;21.70;99.90
22838;DHT22;11585;51.450;-0.240;2022-08-19T07:09:17;21.70;99.90
22838;DHT22;11585;51.450;-0.240;2022-08-19T07:11:48;21.70;99.90
22838;DHT22;11585;51.450;-0.240;2022-08-19T07:14:17;21.70;99.90
22838;DHT22;11585;51.450;-0.240;2022-08-19T07:16:44;21.70;99.90
22838;DHT22;11585;51.450;-0.240;2022-08-19T07:19:11;21.70;99.90
22838;DHT22;11585;51.450;-0.240;2022-08-19T07:21:37;21.70;99.90
22838;DHT22;11585;51.450;-0.240;2022-08-19T07:24:07;21.70;99.90
22838;DHT22;11585;51.450;-0.240;2022-08-19T07:26:38;21.70;99.90
22838;DHT22;11585;51.450;-0.240;2022-08-19T07:29:05;21.70;99.90
22838;DHT22;11585;51.450;-0.240;2022-08-19T07:31:30;21.70;99.90
22838;DHT22;11585;51.450;-0.240;2022-08-19T07:34:22;21.70;99.90
22838;DHT22;11585;51.450;-0.240;2022-08-19T07:36:49;21.70;99.90
22838;DHT22;11585;51.450;-0.240;2022-08-19T07:39:22;21.70;99.90
22838;DHT22;11585;51.450;-0.240;2022-08-19T07:41:48;21.70;99.90
22838;DHT22;11585;51.450;-0.240;2022-08-19T07:44:18;21.70;99.90
22838;DHT22;11585;51.450;-0.240;2022-08-19T07:46:47;21.70;99.90
22838;DHT22;11585;51.450;-0.240;2022-08-19T07:49:15;21.60;99.90
22838;DHT22;11585;51.450;-0.240;2022-08-19T07:51:50;21.60;99.90
22838;DHT22;11585;51.450;-0.240;2022-08-19T07:54:18;21.60;99.90
22838;DHT22;11585;51.450;-0.240;2022-08-19T07:56:43;21.60;99.90
22838;DHT22;11585;51.450;-0.240;2022-08-19T07:59:09;21.60;99.90
22838;DHT22;11585;51.450;-0.240;2022-08-19T08:01:36;21.60;99.90
22838;DHT22;11585;51.450;-0.240;2022-08-19T08:04:03;21.60;99.90
22838;DHT22;11585;51.450;-0.240;2022-08-19T08:06:47;21.60;99.90
22838;DHT22;11585;51.450;-0.240;2022-08-19T08:09:38;21.60;99.90
22838;DHT22;11585;51.450;-0.240;2022-08-19T08:12:08;21.60;99.90
22838;DHT22;11585;51.450;-0.240;2022-08-19T08:14:41;21.60;99.90
22838;DHT22;11585;51.450;-0.240;2022-08-19T08:17:08;21.60;99.90
22838;DHT22;11585;51.450;-0.240;2022-08-19T08:19:34;21.60;99.90
22838;DHT22;11585;51.450;-0.240;2022-08-19T08:22:01;21.60;99.90
22838;DHT22;11585;51.450;-0.240;2022-08-19T08:24:30;21.60;99.90
22838;DHT22;11585;51.450;-0.240;2022-08-19T08:26:57;21.60;99.90
22838;DHT22;11585;51.450;-0.240;2022-08-19T08:29:28;21.60;99.90
22838;DHT22;11585;51.450;-0.240;2022-08-19T08:31:55;21.60;99.90
22838;DHT22;11585;51.450;-0.240;2022-08-19T08:34:22;21.60;99.90
22838;DHT22;11585;51.450;-0.240;2022-08-19T08:36:48;21.60;99.90
22838;DHT22;11585;51.450;-0.240;2022-08-19T08:39:15;21.50;99.90
22838;DHT22;11585;51.450;-0.240;2022-08-19T08:41:55;21.50;99.90
22838;DHT22;11585;51.450;-0.240;2022-08-19T08:44:32;21.60;99.90
22838;DHT22;11585;51.450;-0.240;2022-08-19T08:47:05;21.60;99.90
22838;DHT22;11585;51.450;-0.240;2022-08-19T08:49:51;21.60;99.90
22838;DHT22;11585;51.450;-0.240;2022-08-19T08:52:45;21.60;99.90
22838;DHT22;11585;51.450;-0.240;2022-08-19T08:55:22;21.60;99.90
22838;DHT22;11585;51.450;-0.240;2022-08-19T09:00:38;21.50;99.90
22838;DHT22;11585;51.450;-0.240;2022-08-19T09:03:13;21.60;99.90
22838;DHT22;11585;51.450;-0.240;2022-08-19T09:08:40;21.60;99.90
22838;DHT22;11585;51.450;-0.240;2022-08-19T09:11:14;21.60;99.90
22838;DHT22;11585;51.450;-0.240;2022-08-19T09:16:33;21.60;99.90
22838;DHT22;11585;51.450;-0.240;2022-08-19T09:19:05;21.60;99.90
22838;DHT22;11585;51.450;-0.240;2022-08-19T09:21:32;21.60;99.90
22838;DHT22;11585;51.450;-0.240;2022-08-19T09:27:03;21.70;99.90
22838;DHT22;11585;51.450;-0.240;2022-08-19T09:29:29;21.60;99.90
22838;DHT22;11585;51.450;-0.240;2022-08-19T09:31:55;21.70;99.90
22838;DHT22;11585;51.450;-0.240;2022-08-19T09:37:25;21.70;99.90
22838;DHT22;11585;51.450;-0.240;2022-08-19T09:39:52;21.70;99.90
22838;DHT22;11585;51.450;-0.240;2022-08-19T09:42:18;21.80;99.90
22838;DHT22;11585;51.450;-0.240;2022-08-19T09:44:45;21.80;99.90
22838;DHT22;11585;51.450;-0.240;2022-08-19T09:47:13;21.80;99.90
22838;DHT22;11585;51.450;-0.240;2022-08-19T09:49:40;21.80;99.90
22838;DHT22;11585;51.450;-0.240;2022-08-19T09:52:08;21.80;99.90
22838;DHT22;11585;51.450;-0.240;2022-08-19T09:54:54;21.80;99.90
22838;DHT22;11585;51.450;-0.240;2022-08-19T09:57:20;21.90;99.90
22838;DHT22;11585;51.450;-0.240;2022-08-19T09:59:45;21.90;99.90
22838;DHT22;11585;51.450;-0.240;2022-08-19T10:02:11;21.90;99.90
22838;DHT22;11585;51.450;-0.240;2022-08-19T10:04:38;21.90;99.90
22838;DHT22;11585;51.450;-0.240;2022-08-19T10:07:22;21.90;99.90
22838;DHT22;11585;51.450;-0.240;2022-08-19T10:09:48;21.90;99.90
22838;DHT22;11585;51.450;-0.240;2022-08-19T10:12:13;22.00;99.90
22838;DHT22;11585;51.450;-0.240;2022-08-19T10:14:42;22.00;99.90
22838;DHT22;11585;51.450;-0.240;2022-08-19T10:17:09;22.00;99.90
22838;DHT22;11585;51.450;-0.240;2022-08-19T10:19:35;22.00;99.90
22838;DHT22;11585;51.450;-0.240;2022-08-19T10:22:05;22.00;99.90
22838;DHT22;11585;51.450;-0.240;2022-08-19T10:24:35;22.10;99.90
22838;DHT22;11585;51.450;-0.240;2022-08-19T10:27:01;22.10;99.90
22838;DHT22;11585;51.450;-0.240;2022-08-19T10:29:32;22.10;99.90
22838;DHT22;11585;51.450;-0.240;2022-08-19T10:32:01;22.10;99.90
22838;DHT22;11585;51.450;-0.240;2022-08-19T10:34:29;22.10;99.90
22838;DHT22;11585;51.450;-0.240;2022-08-19T10:36:56;22.10;99.90
22838;DHT22;11585;51.450;-0.240;2022-08-19T10:39:22;22.10;99.90
22838;DHT22;11585;51.450;-0.240;2022-08-19T10:41:47;22.20;99.90
22838;DHT22;11585;51.450;-0.240;2022-08-19T10:44:34;22.20;99.90
22838;DHT22;11585;51.450;-0.240;2022-08-19T10:47:01;22.20;99.90
22838;DHT22;11585;51.450;-0.240;2022-08-19T10:49:27;22.20;99.90
22838;DHT22;11585;51.450;-0.240;2022-08-19T10:51:53;22.20;99.90
22838;DHT22;11585;51.450;-0.240;2022-08-19T10:54:56;22.20;99.90
22838;DHT22;11585;51.450;-0.240;2022-08-19T10:57:43;22.30;99.90
22838;DHT22;11585;51.450;-0.240;2022-08-19T11:00:09;22.30;99.90
22838;DHT22;11585;51.450;-0.240;2022-08-19T11:02:35;22.30;99.90
22838;DHT22;11585;51.450;-0.240;2022-08-19T11:05:02;22.30;99.90
22838;DHT22;11585;51.450;-0.240;2022-08-19T11:07:28;22.30;99.90
22838;DHT22;11585;51.450;-0.240;2022-08-19T11:09:54;22.30;99.90
22838;DHT22;11585;51.450;-0.240;2022-08-19T11:12:19;22.20;99.90
22838;DHT22;11585;51.450;-0.240;2022-08-19T11:17:53;22.30;99.90
22838;DHT22;11585;51.450;-0.240;2022-08-19T11:20:20;22.30;99.90
22838;DHT22;11585;51.450;-0.240;2022-08-19T11:22:46;22.30;99.90
22838;DHT22;11585;51.450;-0.240;2022-08-19T11:25:12;22.30;99.90
22838;DHT22;11585;51.450;-0.240;2022-08-19T11:27:41;22.30;99.90
22838;DHT22;11585;51.450;-0.240;2022-08-19T11:30:09;22.30;99.90
22838;DHT22;11585;51.450;-0.240;2022-08-19T11:32:34;22.30;99.90
22838;DHT22;11585;51.450;-0.240;2022-08-19T11:35:21;22.40;99.90
22838;DHT22;11585;51.450;-0.240;2022-08-19T11:37:48;22.40;99.90
22838;DHT22;11585;51.450;-0.240;2022-08-19T11:40:14;22.40;99.90
22838;DHT22;11585;51.450;-0.240;2022-08-19T11:42:39;22.40;99.90
22838;DHT22;11585;51.450;-0.240;2022-08-19T11:45:26;22.40;99.90
22838;DHT22;11585;51.450;-0.240;2022-08-19T11:47:53;22.40;99.90
22838;DHT22;11585;51.450;-0.240;2022-08-19T11:50:20;22.40;99.90
22838;DHT22;11585;51.450;-0.240;2022-08-19T11:52:45;22.40;99.90
22838;DHT22;11585;51.450;-0.240;2022-08-19T11:55:15;22.40;99.90
22838;DHT22;11585;51.450;-0.240;2022-08-19T11:57:41;22.40;99.90
22838;DHT22;11585;51.450;-0.240;2022-08-19T12:00:08;22.50;99.90
22838;DHT22;11585;51.450;-0.240;2022-08-19T12:02:36;22.50;99.90
22838;DHT22;11585;51.450;-0.240;2022-08-19T12:05:21;22.50;99.90
22838;DHT22;11585;51.450;-0.240;2022-08-19T12:07:47;22.50;99.90
22838;DHT22;11585;51.450;-0.240;2022-08-19T12:10:13;22.50;99.90
22838;DHT22;11585;51.450;-0.240;2022-08-19T12:12:38;22.60;99.90
22838;DHT22;11585;51.450;-0.240;2022-08-19T12:15:09;22.60;99.90
22838;DHT22;11585;51.450;-0.240;2022-08-19T12:17:36;22.60;99.90
22838;DHT22;11585;51.450;-0.240;2022-08-19T12:20:02;22.60;99.90
22838;DHT22;11585;51.450;-0.240;2022-08-19T12:22:28;22.70;99.90
22838;DHT22;11585;51.450;-0.240;2022-08-19T12:24:55;22.70;99.90
22838;DHT22;11585;51.450;-0.240;2022-08-19T12:27:21;22.70;99.90
22838;DHT22;11585;51.450;-0.240;2022-08-19T12:29:46;22.70;99.90
22838;DHT22;11585;51.450;-0.240;2022-08-19T12:32:12;22.70;99.90
22838;DHT22;11585;51.450;-0.240;2022-08-19T12:41:05;22.80;99.90
22838;DHT22;11585;51.450;-0.240;2022-08-19T12:46:22;22.80;99.90
22838;DHT22;11585;51.450;-0.240;2022-08-19T12:48:47;22.80;99.90
22838;DHT22;11585;51.450;-0.240;2022-08-19T12:51:16;22.80;99.90
22838;DHT22;11585;51.450;-0.240;2022-08-19T12:53:46;22.80;99.90
22838;DHT22;11585;51.450;-0.240;2022-08-19T12:56:12;22.90;99.90
22838;DHT22;11585;51.450;-0.240;2022-08-19T12:58:40;22.80;99.90
22838;DHT22;11585;51.450;-0.240;2022-08-19T13:01:15;22.90;99.90
22838;DHT22;11585;51.450;-0.240;2022-08-19T13:04:00;22.90;99.90
22838;DHT22;11585;51.450;-0.240;2022-08-19T13:06:26;22.90;99.90
22838;DHT22;11585;51.450;-0.240;2022-08-19T13:08:52;22.90;99.90
22838;DHT22;11585;51.450;-0.240;2022-08-19T13:11:20;22.90;99.90
22838;DHT22;11585;51.450;-0.240;2022-08-19T13:13:48;22.90;99.90
22838;DHT22;11585;51.450;-0.240;2022-08-19T13:16:16;22.90;99.90
22838;DHT22;11585;51.450;-0.240;2022-08-19T13:18:44;23.00;99.90
22838;DHT22;11585;51.450;-0.240;2022-08-19T13:21:10;23.00;99.90
22838;DHT22;11585;51.450;-0.240;2022-08-19T13:23:41;23.00;99.90
22838;DHT22;11585;51.450;-0.240;2022-08-19T13:26:08;23.00;99.90
22838;DHT22;11585;51.450;-0.240;2022-08-19T13:28:34;23.10;99.90
22838;DHT22;11585;51.450;-0.240;2022-08-19T13:31:20;23.10;99.90
22838;DHT22;11585;51.450;-0.240;2022-08-19T13:34:28;23.10;99.90
22838;DHT22;11585;51.450;-0.240;2022-08-19T13:36:55;23.10;99.90
22838;DHT22;11585;51.450;-0.240;2022-08-19T13:39:23;23.10;99.90
22838;DHT22;11585;51.450;-0.240;2022-08-19T13:41:49;23.20;99.90
22838;DHT22;11585;51.450;-0.240;2022-08-19T13:44:16;23.20;99.90
22838;DHT22;11585;51.450;-0.240;2022-08-19T13:46:44;23.20;99.90
22838;DHT22;11585;51.450;-0.240;2022-08-19T13:49:11;23.20;99.90
22838;DHT22;11585;51.450;-0.240;2022-08-19T13:51:38;23.30;99.90
22838;DHT22;11585;51.450;-0.240;2022-08-19T13:54:09;23.30;99.90
22838;DHT22;11585;51.450;-0.240;2022-08-19T13:56:43;23.30;99.90
22838;DHT22;11585;51.450;-0.240;2022-08-19T13:59:10;23.30;99.90
22838;DHT22;11585;51.450;-0.240;2022-08-19T14:01:36;23.40;99.90
22838;DHT22;11585;51.450;-0.240;2022-08-19T14:04:04;23.40;99.90
22838;DHT22;11585;51.450;-0.240;2022-08-19T14:06:29;23.50;99.90
22838;DHT22;11585;51.450;-0.240;2022-08-19T14:08:55;23.50;99.90
22838;DHT22;11585;51.450;-0.240;2022-08-19T14:11:20;23.50;99.90
22838;DHT22;11585;51.450;-0.240;2022-08-19T14:13:49;23.50;99.90
22838;DHT22;11585;51.450;-0.240;2022-08-19T14:16:14;23.50;99.90
22838;DHT22;11585;51.450;-0.240;2022-08-19T14:18:41;23.60;99.90
22838;DHT22;11585;51.450;-0.240;2022-08-19T14:21:08;23.60;99.90
22838;DHT22;11585;51.450;-0.240;2022-08-19T14:23:41;23.60;99.90
22838;DHT22;11585;51.450;-0.240;2022-08-19T14:26:12;23.60;99.90
22838;DHT22;11585;51.450;-0.240;2022-08-19T14:28:40;23.60;99.90
22838;DHT22;11585;51.450;-0.240;2022-08-19T14:31:13;23.60;99.90
22838;DHT22;11585;51.450;-0.240;2022-08-19T14:33:42;23.70;99.90
22838;DHT22;11585;51.450;-0.240;2022-08-19T14:36:08;23.70;99.90
22838;DHT22;11585;51.450;-0.240;2022-08-19T14:38:34;23.70;99.90
22838;DHT22;11585;51.450;-0.240;2022-08-19T14:41:26;23.70;99.90
22838;DHT22;11585;51.450;-0.240;2022-08-19T14:44:13;23.70;99.90
22838;DHT22;11585;51.450;-0.240;2022-08-19T14:46:39;23.80;99.90
22838;DHT22;11585;51.450;-0.240;2022-08-19T14:49:05;23.80;99.90
22838;DHT22;11585;51.450;-0.240;2022-08-19T14:51:31;23.70;99.90
22838;DHT22;11585;51.450;-0.240;2022-08-19T14:53:58;23.80;99.90
22838;DHT22;11585;51.450;-0.240;2022-08-19T14:56:26;23.80;99.90
22838;DHT22;11585;51.450;-0.240;2022-08-19T14:58:53;23.90;99.90
22838;DHT22;11585;51.450;-0.240;2022-08-19T15:01:20;23.90;99.90
22838;DHT22;11585;51.450;-0.240;2022-08-19T15:03:48;23.90;99.90
22838;DHT22;11585;51.450;-0.240;2022-08-19T15:06:14;23.90;99.90
22838;DHT22;11585;51.450;-0.240;2022-08-19T15:08:41;24.00;99.90
22838;DHT22;11585;51.450;-0.240;2022-08-19T15:11:10;24.00;99.90
22838;DHT22;11585;51.450;-0.240;2022-08-19T15:13:36;24.00;99.90
22838;DHT22;11585;51.450;-0.240;2022-08-19T15:16:02;24.00;99.90
22838;DHT22;11585;51.450;-0.240;2022-08-19T15:18:28;24.00;99.90
22838;DHT22;11585;51.450;-0.240;2022-08-19T15:20:54;24.00;99.90
22838;DHT22;11585;51.450;-0.240;2022-08-19T15:23:20;24.10;99.90
22838;DHT22;11585;51.450;-0.240;2022-08-19T15:25:47;24.10;99.90
22838;DHT22;11585;51.450;-0.240;2022-08-19T15:28:13;24.10;99.90
22838;DHT22;11585;51.450;-0.240;2022-08-19T15:30:41;24.10;99.90
22838;DHT22;11585;51.450;-0.240;2022-08-19T15:33:09;24.10;99.90
22838;DHT22;11585;51.450;-0.240;2022-08-19T15:35:35;24.10;99.90
22838;DHT22;11585;51.450;-0.240;2022-08-19T15:38:01;24.20;99.90
22838;DHT22;11585;51.450;-0.240;2022-08-19T15:40:27;24.20;99.90
22838;DHT22;11585;51.450;-0.240;2022-08-19T15:42:53;24.20;99.90
22838;DHT22;11585;51.450;-0.240;2022-08-19T15:45:21;24.20;99.90
22838;DHT22;11585;51.450;-0.240;2022-08-19T15:47:47;24.20;99.90
22838;DHT22;11585;51.450;-0.240;2022-08-19T15:50:16;24.20;99.90
22838;DHT22;11585;51.450;-0.240;2022-08-19T15:52:54;24.20;99.90
22838;DHT22;11585;51.450;-0.240;2022-08-19T15:55:24;24.20;99.90
22838;DHT22;11585;51.450;-0.240;2022-08-19T15:57:50;24.20;99.90
22838;DHT22;11585;51.450;-0.240;2022-08-19T16:00:35;24.20;99.90
22838;DHT22;11585;51.450;-0.240;2022-08-19T16:03:21;24.20;99.90
22838;DHT22;11585;51.450;-0.240;2022-08-19T16:06:05;24.20;99.90